Change the Weather History Date:

Sunday, March 10, 2013

  Actual Average Record
Temperature  
Mean Temperature 60 °F -  
Max Temperature 69 °F 56 °F 69 °F (2013)
Min Temperature 51 °F 34 °F 35 °F (2014)
Degree Days  
Heating Degree Days 5    
Growing Degree Days 10 (Base 50)    
Moisture  
Dew Point 33 °F    
Average Humidity 36    
Maximum Humidity 47    
Minimum Humidity 25    
Precipitation  
Precipitation 0.00 in - - ()
Sea Level Pressure  
Sea Level Pressure 30.01 in    
Wind  
Wind Speed 8 mph (SSW)    
Max Wind Speed 16 mph    
Max Gust Speed 26 mph    
Visibility 10 miles    
Events      
Averages and records for this station are not official NWS values.
T = Trace of Precipitation, MM = Missing Value Source: NWS Daily Summary

Daily Weather History Graph

Daily Weather History Graph

Search for Another Location

Airport or City:

Trip Planner

Search our weather history database for the weather conditions in past years. The results will help you decide how hot, cold, wet, or windy it might be!

Date:

Astronomy

Mar. 10, 2013 Rise Set
Actual Time 7:54 AM EDT 7:38 PM EDT
Civil Twilight 7:27 AM EDT 8:04 PM EDT
Nautical Twilight 6:57 AM EDT 8:35 PM EDT
Astronomical Twilight 6:26 AM EDT 9:06 PM EDT
Moon 6:53 AM EDT (3/10) 6:45 PM EDT (3/10)
Length of Visible Light 12h 36m
Length of Day
11h 44m
Waning Crescent, 2% of the Moon is Illuminated
Mar 10
Waning Crescent
Mar 11
New
Mar 19
First Quarter
Mar 27
Full
Apr 3
Last Quarter

Hourly Weather History & Observations

Time (EDT) Temp. Dew Point Humidity Pressure Visibility Wind Dir Wind Speed Gust Speed Precip Events Conditions
12:15 AM 53.6 °F 33.8 °F 47% 30.09 in 10.0 mi South 4.6 mph - N/A   Mostly Cloudy
12:35 AM 53.6 °F 33.8 °F 47% 30.09 in 10.0 mi SSW 4.6 mph - N/A   Overcast
12:55 AM 53.6 °F 33.8 °F 47% 30.09 in 10.0 mi SW 4.6 mph - N/A   Mostly Cloudy
1:15 AM 53.6 °F 32.0 °F 44% 30.09 in 10.0 mi SW 9.2 mph - N/A   Scattered Clouds
1:35 AM 53.6 °F 32.0 °F 44% 30.09 in 10.0 mi SW 6.9 mph - N/A   Clear
1:55 AM 53.6 °F 32.0 °F 44% 30.09 in 10.0 mi SW 8.1 mph - N/A   Clear
3:15 AM 53.6 °F 32.0 °F 44% 30.08 in 10.0 mi SW 6.9 mph - N/A   Clear
3:35 AM 53.6 °F 32.0 °F 44% 30.08 in 10.0 mi SSW 9.2 mph - N/A   Clear
3:55 AM 53.6 °F 32.0 °F 44% 30.07 in 10.0 mi SW 9.2 mph - N/A   Scattered Clouds
4:15 AM 53.6 °F 32.0 °F 44% 30.06 in 10.0 mi SW 5.8 mph - N/A   Scattered Clouds
4:35 AM 51.8 °F 32.0 °F 47% 30.06 in 10.0 mi SW 8.1 mph - N/A   Clear
4:55 AM 53.6 °F 32.0 °F 44% 30.06 in 10.0 mi SW 4.6 mph - N/A   Scattered Clouds
5:15 AM 51.8 °F 32.0 °F 47% 30.06 in 10.0 mi SW 6.9 mph - N/A   Clear
5:35 AM 51.8 °F 32.0 °F 47% 30.06 in 10.0 mi SSW 6.9 mph - N/A   Clear
5:55 AM 51.8 °F 32.0 °F 47% 30.05 in 10.0 mi SSW 8.1 mph - N/A   Clear
6:15 AM 51.8 °F 32.0 °F 47% 30.05 in 10.0 mi SSW 6.9 mph - N/A   Clear
6:35 AM 51.8 °F 32.0 °F 47% 30.06 in 10.0 mi SSW 6.9 mph - N/A   Clear
6:55 AM 51.8 °F 32.0 °F 47% 30.07 in 10.0 mi SW 5.8 mph - N/A   Clear
7:15 AM 51.8 °F 32.0 °F 47% 30.07 in 10.0 mi SSW 6.9 mph - N/A   Clear
8:35 AM 51.8 °F 32.0 °F 47% 30.08 in 10.0 mi Calm Calm - N/A   Clear
8:55 AM 51.8 °F 32.0 °F 47% 30.09 in 10.0 mi Calm Calm - N/A   Clear
9:15 AM 53.6 °F 33.8 °F 47% 30.09 in 10.0 mi WSW 3.5 mph - N/A   Clear
9:35 AM 53.6 °F 33.8 °F 47% 30.10 in 10.0 mi Calm Calm - N/A   Clear
9:55 AM 53.6 °F 32.0 °F 44% 30.09 in 10.0 mi SW 4.6 mph - N/A   Clear
10:15 AM 57.2 °F 32.0 °F 38% 30.10 in 10.0 mi SW 6.9 mph - N/A   Clear
10:35 AM 59.0 °F 33.8 °F 39% 30.09 in 10.0 mi SSW 9.2 mph - N/A   Clear
10:55 AM 59.0 °F 32.0 °F 36% 30.08 in 10.0 mi SSW 9.2 mph - N/A   Clear
11:15 AM 60.8 °F 32.0 °F 34% 30.08 in 10.0 mi SW 9.2 mph 16.1 mph N/A   Clear
11:35 AM 60.8 °F 32.0 °F 34% 30.08 in 10.0 mi SW 9.2 mph - N/A   Clear
11:55 AM 60.8 °F 32.0 °F 34% 30.07 in 10.0 mi SSW 6.9 mph - N/A   Scattered Clouds
12:15 PM 60.8 °F 32.0 °F 34% 30.06 in 10.0 mi South 8.1 mph - N/A   Clear
12:35 PM 62.6 °F 32.0 °F 32% 30.07 in 10.0 mi SSW 8.1 mph - N/A   Clear
12:55 PM 64.4 °F 32.0 °F 30% 30.07 in 10.0 mi SSW 5.8 mph 16.1 mph N/A   Clear
1:15 PM 64.4 °F 32.0 °F 30% 30.06 in 10.0 mi WSW 13.8 mph - N/A   Clear
1:35 PM 66.2 °F 32.0 °F 28% 30.05 in 10.0 mi WSW 12.7 mph 19.6 mph N/A   Clear
1:55 PM 66.2 °F 32.0 °F 28% 30.04 in 10.0 mi SSW 9.2 mph 18.4 mph N/A   Clear
2:15 PM 66.2 °F 32.0 °F 28% 30.04 in 10.0 mi WSW 9.2 mph - N/A   Clear
2:35 PM 68.0 °F 32.0 °F 26% 30.03 in 10.0 mi SW 16.1 mph 23.0 mph N/A   Clear
2:55 PM 68.0 °F 32.0 °F 26% 30.02 in 10.0 mi WSW 9.2 mph - N/A   Clear
3:15 PM 69.8 °F 32.0 °F 25% 30.00 in 10.0 mi South 9.2 mph - N/A   Clear
3:35 PM 69.8 °F 32.0 °F 25% 29.99 in 10.0 mi South 9.2 mph - N/A   Clear
3:55 PM 68.0 °F 32.0 °F 26% 29.99 in 10.0 mi SW 8.1 mph - N/A   Clear
4:15 PM 69.8 °F 33.8 °F 27% 29.98 in 10.0 mi SSW 9.2 mph - N/A   Clear
4:35 PM 69.8 °F 33.8 °F 27% 29.98 in 10.0 mi SSW 11.5 mph 17.3 mph N/A   Clear
4:55 PM 69.8 °F 33.8 °F 27% 29.98 in 10.0 mi SSW 9.2 mph - N/A   Clear
5:15 PM 69.8 °F 33.8 °F 27% 29.97 in 10.0 mi SW 10.4 mph - N/A   Clear
5:35 PM 68.0 °F 33.8 °F 28% 29.97 in 10.0 mi SSW 8.1 mph - N/A   Clear
5:55 PM 68.0 °F 33.8 °F 28% 29.96 in 10.0 mi SW 6.9 mph - N/A   Clear
6:15 PM 68.0 °F 33.8 °F 28% 29.95 in 10.0 mi SSW 8.1 mph - N/A   Clear
6:35 PM 68.0 °F 32.0 °F 26% 29.93 in 10.0 mi South 13.8 mph - N/A   Clear
6:55 PM 68.0 °F 32.0 °F 26% 29.93 in 10.0 mi SSW 10.4 mph 18.4 mph N/A   Clear
7:15 PM 64.4 °F 32.0 °F 30% 29.93 in 10.0 mi SSW 10.4 mph - N/A   Clear
7:35 PM 64.4 °F 32.0 °F 30% 29.93 in 10.0 mi SSW 10.4 mph - N/A   Clear
7:55 PM 64.4 °F 32.0 °F 30% 29.93 in 10.0 mi SSW 12.7 mph - N/A   Clear
8:15 PM 64.4 °F 32.0 °F 30% 29.92 in 10.0 mi SSW 10.4 mph - N/A   Clear
8:35 PM 64.4 °F 32.0 °F 30% 29.91 in 10.0 mi South 13.8 mph 19.6 mph N/A   Clear
8:55 PM 64.4 °F 32.0 °F 30% 29.91 in 10.0 mi South 9.2 mph - N/A   Clear
9:15 PM 64.4 °F 32.0 °F 30% 29.90 in 10.0 mi South 13.8 mph - N/A   Clear
9:35 PM 66.2 °F 32.0 °F 28% 29.90 in 10.0 mi South 13.8 mph 26.5 mph N/A   Clear
9:55 PM 64.4 °F 32.0 °F 30% 29.91 in 10.0 mi SSW 10.4 mph - N/A   Clear
10:15 PM 64.4 °F 32.0 °F 30% 29.91 in 10.0 mi South 10.4 mph - N/A   Clear
10:35 PM 64.4 °F 32.0 °F 30% 29.91 in 10.0 mi SSW 11.5 mph - N/A   Clear
10:55 PM 62.6 °F 33.8 °F 34% 29.91 in 10.0 mi SSW 9.2 mph - N/A   Clear
11:15 PM 62.6 °F 33.8 °F 34% 29.91 in 10.0 mi SSW 10.4 mph - N/A   Clear
11:35 PM 62.6 °F 33.8 °F 34% 29.91 in 10.0 mi SSW 11.5 mph - N/A   Clear
11:55 PM 62.6 °F 33.8 °F 34% 29.90 in 10.0 mi South 10.4 mph - N/A   Scattered Clouds
12:15 AM 62.6 °F 33.8 °F 34% 29.90 in 10.0 mi SSW 11.5 mph - N/A   Scattered Clouds
12:35 AM 62.6 °F 33.8 °F 34% 29.91 in 10.0 mi SSW 12.7 mph - N/A   Clear
12:55 AM 62.6 °F 33.8 °F 34% 29.90 in 10.0 mi South 11.5 mph - N/A   Clear